createdAt,value
2018-06-02T00:03:27.203Z,63.70
2018-06-02T00:08:29.697Z,63.80
2018-06-02T00:13:32.304Z,64.00
2018-06-02T00:18:34.815Z,63.80
2018-06-02T00:23:37.328Z,63.80
2018-06-02T00:28:40.596Z,64.50
2018-06-02T00:33:43.103Z,63.60
2018-06-02T00:38:45.600Z,63.60
2018-06-02T00:43:48.108Z,63.60
2018-06-02T00:48:51.364Z,63.30
2018-06-02T00:53:53.904Z,63.50
2018-06-02T00:58:56.360Z,63.60
2018-06-02T01:03:58.860Z,63.50
2018-06-02T01:09:01.356Z,63.50
2018-06-02T01:14:03.859Z,63.50
2018-06-02T01:19:06.360Z,63.40
2018-06-02T01:24:08.867Z,63.50
2018-06-02T01:29:11.372Z,63.70
2018-06-02T01:34:14.674Z,63.30
2018-06-02T01:39:17.152Z,63.40
2018-06-02T01:44:19.644Z,63.40
2018-06-02T01:49:22.151Z,63.10
2018-06-02T01:54:24.644Z,63.50
2018-06-02T01:59:27.149Z,63.60
2018-06-02T02:04:30.440Z,63.40
2018-06-02T02:09:32.970Z,63.50
2018-06-02T02:14:36.228Z,63.50
2018-06-02T02:19:38.755Z,63.80
2018-06-02T02:24:42.037Z,64.00
2018-06-02T02:29:44.544Z,63.40
2018-06-02T02:34:47.039Z,63.20
2018-06-02T02:39:49.523Z,63.50
2018-06-02T02:44:52.048Z,63.40
2018-06-02T02:49:55.321Z,63.60
2018-06-02T02:54:57.819Z,63.60
2018-06-02T03:00:00.314Z,63.60
2018-06-02T03:05:02.816Z,63.30
2018-06-02T03:10:05.321Z,63.80
2018-06-02T03:15:07.820Z,63.60
2018-06-02T03:20:10.331Z,63.70
2018-06-02T03:25:13.600Z,63.50
2018-06-02T03:30:16.093Z,63.50
2018-06-02T03:35:18.593Z,63.60
2018-06-02T03:40:21.112Z,63.30
2018-06-02T03:45:23.591Z,63.80
2018-06-02T03:50:26.106Z,63.50
2018-06-02T03:55:29.373Z,63.50
2018-06-02T04:00:31.879Z,63.30
2018-06-02T04:05:34.384Z,63.50
2018-06-02T04:10:36.883Z,63.40
2018-06-02T04:15:39.414Z,63.70
2018-06-02T04:20:41.916Z,63.50
2018-06-02T04:25:45.183Z,63.50
2018-06-02T04:30:48.539Z,63.40
2018-06-02T04:35:51.044Z,63.60
2018-06-02T04:40:53.535Z,63.40
2018-06-02T04:45:56.040Z,63.00
2018-06-02T04:50:58.536Z,63.20
2018-06-02T04:56:01.032Z,63.40
2018-06-02T05:01:03.534Z,63.30
2018-06-02T05:06:06.016Z,63.60
2018-06-02T05:11:08.508Z,63.50
2018-06-02T05:16:10.991Z,63.20
2018-06-02T05:21:13.480Z,63.70
2018-06-02T05:26:15.971Z,63.80
2018-06-02T05:31:18.468Z,63.80
2018-06-02T05:36:21.729Z,64.90
2018-06-02T05:41:24.217Z,63.60
2018-06-02T05:46:26.708Z,63.60
2018-06-02T05:51:29.201Z,63.70
2018-06-02T05:56:31.692Z,63.50
2018-06-02T06:01:34.204Z,63.80
2018-06-02T06:06:37.510Z,63.60
2018-06-02T06:11:39.993Z,63.60
2018-06-02T06:16:43.249Z,64.00
2018-06-02T06:21:45.760Z,63.70
2018-06-02T06:26:48.292Z,64.20
2018-06-02T06:31:50.728Z,64.20
2018-06-02T06:36:53.221Z,63.80
2018-06-02T06:41:55.721Z,63.80
2018-06-02T06:46:58.222Z,64.00
2018-06-02T06:52:00.712Z,64.20
2018-06-02T06:57:03.204Z,64.20
2018-06-02T07:02:05.693Z,64.40
2018-06-02T07:07:08.207Z,64.60
2018-06-02T07:12:10.709Z,64.40
2018-06-02T07:17:13.201Z,64.50
2018-06-02T07:22:15.707Z,65.00
2018-06-02T07:27:18.191Z,64.70
2018-06-02T07:32:20.684Z,64.70
2018-06-02T07:37:23.177Z,64.50
2018-06-02T07:42:25.663Z,64.90
2018-06-02T07:47:28.147Z,64.90
2018-06-02T07:52:30.652Z,65.10
2018-06-02T07:57:33.182Z,65.00
2018-06-02T08:02:35.635Z,64.80
2018-06-02T08:07:38.121Z,64.50
2018-06-02T08:12:40.599Z,64.50
2018-06-02T08:17:43.111Z,64.20
2018-06-02T08:22:45.602Z,64.10
2018-06-02T08:27:48.089Z,64.00
2018-06-02T08:32:50.586Z,63.80
2018-06-02T08:37:54.168Z,63.60
2018-06-02T08:42:57.424Z,63.70
2018-06-02T08:47:59.907Z,63.50
2018-06-02T08:53:02.422Z,63.70
2018-06-02T08:58:04.915Z,63.20
2018-06-02T09:03:07.402Z,63.10
2018-06-02T09:08:09.895Z,63.10
2018-06-02T09:13:12.388Z,63.10
2018-06-02T09:18:14.893Z,63.60
2018-06-02T09:23:17.376Z,63.20
2018-06-02T09:28:19.886Z,62.90
2018-06-02T09:33:22.367Z,62.80
2018-06-02T09:38:24.888Z,62.90
2018-06-02T09:43:27.386Z,63.70
2018-06-02T09:48:29.873Z,63.30
2018-06-02T09:53:32.380Z,62.20
2018-06-02T09:58:35.656Z,62.60
2018-06-02T10:03:38.148Z,62.50
2018-06-02T10:08:40.659Z,62.40
2018-06-02T10:13:43.216Z,62.30
2018-06-02T10:18:45.720Z,62.20
2018-06-02T10:23:48.210Z,62.50
2018-06-02T10:28:50.693Z,61.80
2018-06-02T10:33:53.179Z,62.10
2018-06-02T10:38:55.689Z,62.00
2018-06-02T10:43:58.167Z,61.80
2018-06-02T10:49:00.664Z,62.20
2018-06-02T10:54:03.207Z,62.00
2018-06-02T10:59:06.472Z,62.20
2018-06-02T11:04:08.964Z,62.10
2018-06-02T11:09:11.451Z,62.20
2018-06-02T11:14:13.993Z,62.00
2018-06-02T11:19:16.488Z,61.90
2018-06-02T11:24:18.973Z,61.80
2018-06-02T11:29:21.460Z,61.80
2018-06-02T11:34:23.975Z,61.80
2018-06-02T11:39:27.230Z,61.90
2018-06-02T11:44:29.717Z,61.80
2018-06-02T11:49:32.209Z,62.20
2018-06-02T11:54:34.709Z,62.10
2018-06-02T11:59:37.211Z,62.40
2018-06-02T12:04:39.700Z,62.70
2018-06-02T12:09:42.193Z,62.60
2018-06-02T12:14:44.703Z,62.60
2018-06-02T12:19:47.203Z,62.70
2018-06-02T12:24:49.692Z,62.30
2018-06-02T12:29:52.192Z,62.40
2018-06-02T12:34:54.680Z,62.20
2018-06-02T12:39:57.216Z,62.00
2018-06-02T12:44:59.720Z,61.40
2018-06-02T12:50:02.995Z,61.80
2018-06-02T12:55:06.349Z,61.60
2018-06-02T13:00:08.832Z,61.70
2018-06-02T13:05:12.085Z,60.80
2018-06-02T13:10:14.579Z,60.70
2018-06-02T13:15:17.074Z,60.40
2018-06-02T13:20:19.581Z,60.90
2018-06-02T13:25:22.073Z,60.60
2018-06-02T13:30:24.552Z,60.70
2018-06-02T13:35:27.041Z,61.10
2018-06-02T13:40:29.528Z,60.80
2018-06-02T13:45:32.026Z,60.80
2018-06-02T13:50:34.517Z,60.60
2018-06-02T13:55:37.000Z,60.10
2018-06-02T14:00:39.480Z,59.70
2018-06-02T14:05:41.963Z,61.60
2018-06-02T14:10:44.501Z,59.40
2018-06-02T14:15:48.343Z,59.90
2018-06-02T14:20:51.443Z,59.50
2018-06-02T14:25:53.924Z,59.90
2018-06-02T14:30:56.431Z,60.10
2018-06-02T14:35:58.907Z,58.90
2018-06-02T14:41:01.394Z,59.00
2018-06-02T14:46:03.890Z,59.30
2018-06-02T14:51:06.483Z,59.40
2018-06-02T14:56:08.973Z,60.00
2018-06-02T15:01:11.462Z,58.80
2018-06-02T15:06:13.945Z,59.30
2018-06-02T15:11:16.520Z,58.60
2018-06-02T15:16:19.021Z,59.00
2018-06-02T15:21:22.911Z,58.00
2018-06-02T15:26:25.398Z,57.90
2018-06-02T15:31:27.884Z,59.50
2018-06-02T15:36:30.429Z,59.20
2018-06-02T15:41:33.010Z,59.20
2018-06-02T15:46:36.273Z,57.90
2018-06-02T15:51:38.765Z,57.80
2018-06-02T15:56:41.256Z,58.70
2018-06-02T16:01:43.753Z,58.30
2018-06-02T16:06:46.250Z,56.40
2018-06-02T16:11:48.745Z,58.40
2018-06-02T16:16:51.228Z,58.90
2018-06-02T16:21:53.713Z,56.60
2018-06-02T16:26:56.224Z,57.00
2018-06-02T16:31:58.709Z,57.60
2018-06-02T16:37:01.195Z,56.80
2018-06-02T16:42:03.710Z,58.60
2018-06-02T16:47:06.196Z,57.40
2018-06-02T16:52:08.696Z,57.50
2018-06-02T16:57:11.179Z,58.10
2018-06-02T17:02:13.663Z,56.80
2018-06-02T17:07:16.152Z,57.50
2018-06-02T17:12:18.720Z,58.40
2018-06-02T17:17:22.413Z,56.50
2018-06-02T17:22:24.895Z,56.50
2018-06-02T17:27:27.383Z,57.00
2018-06-02T17:32:29.877Z,57.70
2018-06-02T17:37:32.398Z,56.60
2018-06-02T17:42:35.660Z,57.00
2018-06-02T17:47:38.169Z,57.00
2018-06-02T17:52:40.702Z,57.60
2018-06-02T17:57:43.975Z,58.00
2018-06-02T18:02:46.476Z,58.00
2018-06-02T18:07:49.009Z,58.00
2018-06-02T18:12:51.541Z,57.80
2018-06-02T18:17:54.047Z,57.70
2018-06-02T18:22:56.552Z,58.60
2018-06-02T18:27:59.044Z,57.80
2018-06-02T18:33:01.527Z,57.60
2018-06-02T18:38:04.025Z,58.20
2018-06-02T18:43:06.537Z,58.20
2018-06-02T18:48:09.069Z,58.20
2018-06-02T18:53:11.569Z,58.30
2018-06-02T18:58:14.069Z,58.40
2018-06-02T19:03:16.608Z,58.30
2018-06-02T19:08:19.100Z,58.40
2018-06-02T19:13:21.597Z,58.40
2018-06-02T19:18:24.125Z,58.60
2018-06-02T19:23:26.663Z,58.10
2018-06-02T19:28:29.151Z,58.70
2018-06-02T19:33:31.653Z,58.80
2018-06-02T19:38:34.169Z,58.90
2018-06-02T19:43:36.659Z,59.00
2018-06-02T19:48:39.932Z,58.90
2018-06-02T19:53:42.427Z,58.60
2018-06-02T19:58:44.921Z,58.70
2018-06-02T20:03:47.420Z,58.70
2018-06-02T20:08:49.929Z,58.60
2018-06-02T20:13:52.424Z,58.70
2018-06-02T20:18:54.972Z,58.80
2018-06-02T20:23:58.235Z,58.80
2018-06-02T20:29:00.726Z,58.80
2018-06-02T20:34:03.224Z,58.60
2018-06-02T20:39:06.488Z,58.80
2018-06-02T20:44:08.993Z,58.80
2018-06-02T20:49:11.514Z,58.90
2018-06-02T20:54:14.013Z,58.90
2018-06-02T20:59:16.515Z,58.80
2018-06-02T21:04:19.796Z,58.90
2018-06-02T21:09:22.308Z,58.90
2018-06-02T21:14:24.803Z,58.90
2018-06-02T21:19:27.312Z,58.70
2018-06-02T21:24:30.594Z,59.10
2018-06-02T21:29:33.087Z,59.10
2018-06-02T21:34:35.572Z,59.10
2018-06-02T21:39:38.072Z,58.70
2018-06-02T21:44:40.555Z,59.00
2018-06-02T21:49:43.069Z,59.10
2018-06-02T21:54:45.561Z,58.80
2018-06-02T21:59:48.057Z,59.70
2018-06-02T22:04:50.573Z,59.10
2018-06-02T22:09:53.076Z,59.70
2018-06-02T22:14:55.572Z,59.10
2018-06-02T22:19:58.061Z,59.00
2018-06-02T22:25:00.545Z,58.70
2018-06-02T22:30:03.028Z,59.10
2018-06-02T22:35:06.312Z,59.20
2018-06-02T22:40:08.800Z,59.20
2018-06-02T22:45:11.317Z,59.30
2018-06-02T22:50:14.576Z,59.10
2018-06-02T22:55:17.075Z,59.30
2018-06-02T23:00:20.491Z,59.30
2018-06-02T23:05:22.996Z,59.30
2018-06-02T23:10:25.533Z,59.20
2018-06-02T23:15:28.796Z,59.60
2018-06-02T23:20:31.292Z,59.50
2018-06-02T23:25:33.776Z,59.50
2018-06-02T23:30:36.296Z,59.50
2018-06-02T23:35:38.788Z,59.40
2018-06-02T23:40:41.288Z,59.70
2018-06-02T23:45:44.562Z,60.10
2018-06-02T23:50:47.043Z,59.80
2018-06-02T23:55:49.539Z,60.00
